Time;durP1;ratioP1;P1;durP2;ratioP2;P2;SDS_P1;SDS_P2;PMS_P1;PMS_P2;Temp;Humidity;BMP_temperature;BMP_pressure;BME280_temperature;BME280_humidity;BME280_pressure;Samples;Min_cycle;Max_cycle;Signal;HPM_P1;HPM_P2
2023/10/07 00:00:31;;;;;;;10.57;5.30;;;9.80;99.90;;;;;;5101941;28;20251;-55
2023/10/07 00:03:00;;;;;;;10.67;5.90;;;9.80;99.90;;;;;;5093594;28;20230;-57
2023/10/07 00:05:29;;;;;;;9.37;5.50;;;9.80;99.90;;;;;;5093528;28;20240;-55
2023/10/07 00:08:00;;;;;;;9.07;5.33;;;9.80;99.90;;;;;;5096188;28;20536;-54
2023/10/07 00:10:27;;;;;;;9.77;5.87;;;9.80;99.90;;;;;;5105213;28;20227;-55
2023/10/07 00:12:56;;;;;;;9.47;5.60;;;9.80;99.90;;;;;;5101979;28;20243;-57
2023/10/07 00:15:28;;;;;;;8.80;5.53;;;9.80;99.90;;;;;;5101295;28;20267;-54
2023/10/07 00:17:57;;;;;;;10.87;5.90;;;9.70;99.90;;;;;;5104353;28;20261;-56
2023/10/07 00:20:26;;;;;;;9.97;5.70;;;9.70;99.90;;;;;;5105136;28;20241;-54
2023/10/07 00:23:00;;;;;;;8.50;5.33;;;9.60;99.90;;;;;;5102284;28;20270;-55
2023/10/07 00:25:30;;;;;;;8.50;5.63;;;9.60;99.90;;;;;;5101236;28;20285;-56
2023/10/07 00:27:57;;;;;;;10.37;5.43;;;9.60;99.90;;;;;;5104196;28;20214;-56
2023/10/07 00:30:27;;;;;;;10.10;5.73;;;9.50;99.90;;;;;;5104776;28;20743;-54
2023/10/07 00:32:55;;;;;;;10.00;5.23;;;9.50;99.90;;;;;;5102139;28;20269;-54
2023/10/07 00:35:23;;;;;;;8.30;5.20;;;9.50;99.90;;;;;;5101607;28;20311;-55
2023/10/07 00:37:52;;;;;;;10.67;5.60;;;9.50;99.90;;;;;;5103236;28;20686;-54
2023/10/07 00:40:31;;;;;;;10.63;5.57;;;9.40;99.90;;;;;;5105093;28;20235;-56
2023/10/07 00:42:58;;;;;;;10.87;5.67;;;9.40;99.90;;;;;;5101665;28;20192;-55
2023/10/07 00:45:26;;;;;;;7.70;5.10;;;9.40;99.90;;;;;;5101082;28;20243;-54
2023/10/07 00:47:53;;;;;;;11.00;5.30;;;9.50;99.90;;;;;;5105260;28;20205;-54
2023/10/07 00:50:22;;;;;;;10.60;5.87;;;9.50;99.90;;;;;;5106605;28;20231;-55
2023/10/07 00:52:59;;;;;;;8.73;5.10;;;9.40;99.90;;;;;;5104903;28;20267;-54
2023/10/07 00:55:29;;;;;;;11.37;5.60;;;9.50;99.90;;;;;;5103109;28;20568;-54
2023/10/07 00:58:11;;;;;;;11.27;5.97;;;9.50;99.90;;;;;;5104917;28;20204;-54
2023/10/07 01:00:47;;;;;;;8.93;5.77;;;9.40;99.90;;;;;;5103635;28;20225;-55
2023/10/07 01:03:23;;;;;;;10.60;4.87;;;9.40;99.90;;;;;;5100014;28;20200;-56
2023/10/07 01:06:10;;;;;;;10.33;5.70;;;9.40;99.90;;;;;;5103015;28;20230;-56
2023/10/07 01:08:44;;;;;;;11.23;5.50;;;9.40;99.90;;;;;;5103833;28;20796;-54
2023/10/07 01:11:19;;;;;;;8.37;4.80;;;9.30;99.90;;;;;;5100645;28;20208;-54
2023/10/07 01:13:50;;;;;;;8.37;5.07;;;9.20;99.90;;;;;;5102150;28;20600;-55
2023/10/07 01:16:32;;;;;;;8.40;5.07;;;9.10;99.90;;;;;;5104057;28;20212;-54
2023/10/07 01:19:18;;;;;;;10.97;5.53;;;9.10;99.90;;;;;;5100464;28;20215;-56
2023/10/07 01:21:51;;;;;;;9.53;5.33;;;9.10;99.90;;;;;;5101501;28;20204;-54
2023/10/07 01:24:33;;;;;;;9.13;4.97;;;9.10;99.90;;;;;;5104325;28;20196;-55
2023/10/07 01:27:06;;;;;;;8.27;5.07;;;9.00;99.90;;;;;;5100212;28;20290;-55
2023/10/07 01:29:34;;;;;;;9.33;5.50;;;9.00;99.90;;;;;;5100275;28;20236;-54
2023/10/07 01:32:11;;;;;;;8.40;5.07;;;8.90;99.90;;;;;;5091626;28;20201;-54
2023/10/07 01:34:38;;;;;;;10.53;5.60;;;8.90;99.90;;;;;;5091712;28;20253;-55
2023/10/07 01:37:07;;;;;;;11.20;5.30;;;8.90;99.90;;;;;;5095549;28;20677;-54
2023/10/07 01:39:41;;;;;;;9.57;5.23;;;8.90;99.90;;;;;;5103490;28;20261;-55
2023/10/07 01:42:12;;;;;;;10.73;5.70;;;8.90;99.90;;;;;;5107561;28;20208;-55
2023/10/07 01:44:41;;;;;;;11.63;5.77;;;9.00;99.90;;;;;;5100050;28;20638;-53
2023/10/07 01:47:16;;;;;;;10.23;5.63;;;9.00;99.90;;;;;;5103440;28;20199;-54
2023/10/07 01:49:44;;;;;;;7.73;5.13;;;9.00;99.90;;;;;;5102215;28;20231;-55
2023/10/07 01:52:11;;;;;;;9.80;4.97;;;9.00;99.90;;;;;;5099643;28;20204;-56
2023/10/07 01:54:41;;;;;;;8.17;4.80;;;9.00;99.90;;;;;;5099888;28;20228;-55
2023/10/07 01:57:09;;;;;;;9.57;5.40;;;9.00;99.90;;;;;;5103034;28;20203;-57
2023/10/07 01:59:37;;;;;;;9.50;5.83;;;9.00;99.90;;;;;;5103191;28;20224;-55
2023/10/07 02:02:05;;;;;;;9.00;5.10;;;9.00;99.90;;;;;;5099593;28;20204;-55
2023/10/07 02:04:32;;;;;;;11.30;5.80;;;9.00;99.90;;;;;;5099794;28;20207;-55
2023/10/07 02:06:59;;;;;;;12.33;5.73;;;9.00;99.90;;;;;;5102375;28;20207;-55
2023/10/07 02:09:27;;;;;;;9.57;5.10;;;9.00;99.90;;;;;;5102926;28;20223;-55
2023/10/07 02:11:57;;;;;;;8.80;5.43;;;9.00;99.90;;;;;;5100275;28;20215;-55
2023/10/07 02:14:26;;;;;;;11.20;5.60;;;9.00;99.90;;;;;;5099213;28;20323;-56
2023/10/07 02:16:56;;;;;;;7.80;5.10;;;9.00;99.90;;;;;;5101355;28;20201;-55
2023/10/07 02:19:29;;;;;;;10.10;4.97;;;8.90;99.90;;;;;;5102667;28;20780;-56
2023/10/07 02:21:59;;;;;;;8.33;4.77;;;8.90;99.90;;;;;;5100300;28;20207;-55
2023/10/07 02:24:29;;;;;;;9.13;5.67;;;9.00;99.90;;;;;;5099647;28;20270;-55
2023/10/07 02:27:03;;;;;;;10.13;5.20;;;9.00;99.90;;;;;;5101815;28;20703;-55
2023/10/07 02:29:30;;;;;;;10.17;5.00;;;9.00;99.90;;;;;;5102758;28;20243;-56
2023/10/07 02:32:07;;;;;;;11.00;5.40;;;9.10;99.90;;;;;;5099728;28;20692;-55
2023/10/07 02:34:34;;;;;;;9.97;5.07;;;9.10;99.90;;;;;;5098933;28;20251;-55
2023/10/07 02:37:12;;;;;;;8.50;4.90;;;9.10;99.90;;;;;;5101973;28;20203;-55
2023/10/07 02:39:46;;;;;;;8.77;5.30;;;9.10;99.90;;;;;;5101793;28;20250;-57
2023/10/07 02:42:21;;;;;;;9.27;5.07;;;9.00;99.90;;;;;;5099020;28;20682;-56
2023/10/07 02:44:51;;;;;;;8.77;5.10;;;9.00;99.90;;;;;;5100202;28;20681;-55
2023/10/07 02:47:18;;;;;;;7.97;5.00;;;9.00;99.90;;;;;;5102162;28;20257;-55
2023/10/07 02:49:49;;;;;;;8.87;5.43;;;9.00;99.90;;;;;;5101514;28;20314;-57
2023/10/07 02:52:19;;;;;;;9.10;4.87;;;9.00;99.90;;;;;;5098948;28;20265;-56
2023/10/07 02:55:05;;;;;;;7.50;5.10;;;9.00;99.90;;;;;;5099874;28;20227;-56
2023/10/07 02:57:39;;;;;;;9.40;5.73;;;9.10;99.90;;;;;;5102129;28;20210;-57
2023/10/07 03:00:28;;;;;;;9.70;5.80;;;9.10;99.90;;;;;;5090788;28;20334;-58
2023/10/07 03:03:10;;;;;;;11.73;7.17;;;9.10;99.90;;;;;;5092966;28;20200;-55
2023/10/07 03:05:43;;;;;;;14.53;6.90;;;9.00;99.90;;;;;;5102486;28;20713;-56
2023/10/07 03:08:19;;;;;;;10.80;6.27;;;9.00;99.90;;;;;;5102337;28;20204;-55
2023/10/07 03:10:54;;;;;;;9.17;5.13;;;8.90;99.90;;;;;;5101518;28;20210;-56
2023/10/07 03:13:24;;;;;;;8.70;5.00;;;9.00;99.90;;;;;;5098905;28;20220;-55
2023/10/07 03:16:09;;;;;;;8.77;5.07;;;9.00;99.90;;;;;;5099705;28;20204;-55
2023/10/07 03:18:38;;;;;;;11.97;5.70;;;9.00;99.90;;;;;;5101561;28;20328;-55
2023/10/07 03:21:10;;;;;;;8.87;5.60;;;9.00;99.90;;;;;;5090721;28;20239;-55
2023/10/07 03:23:45;;;;;;;9.97;5.20;;;9.00;99.90;;;;;;5090637;28;20235;-55
2023/10/07 03:26:13;;;;;;;9.60;5.50;;;9.00;99.90;;;;;;5091390;28;20234;-56
2023/10/07 03:28:48;;;;;;;7.90;4.90;;;9.00;99.90;;;;;;5102003;28;20228;-55
2023/10/07 03:31:18;;;;;;;8.60;5.23;;;8.80;99.90;;;;;;5102711;28;20208;-56
2023/10/07 03:33:48;;;;;;;36.37;29.57;;;8.90;99.90;;;;;;5102943;28;20306;-55
2023/10/07 03:36:41;;;;;;;14.60;8.83;;;8.80;99.90;;;;;;5105812;28;20227;-56
2023/10/07 03:39:16;;;;;;;11.37;6.67;;;8.80;99.90;;;;;;5093811;28;20231;-55
2023/10/07 03:41:47;;;;;;;23.97;15.80;;;8.70;99.90;;;;;;5094414;28;20208;-55
2023/10/07 03:44:16;;;;;;;12.17;9.10;;;8.70;99.90;;;;;;5105858;28;20261;-55
2023/10/07 03:46:44;;;;;;;14.40;11.17;;;8.70;99.90;;;;;;5104641;28;20200;-56
2023/10/07 03:49:11;;;;;;;8.97;6.43;;;8.70;99.90;;;;;;5101964;28;20713;-55
2023/10/07 03:51:38;;;;;;;9.67;6.77;;;8.70;99.90;;;;;;5101916;28;20284;-55
2023/10/07 03:54:11;;;;;;;8.83;5.10;;;8.70;99.90;;;;;;5097104;28;20219;-55
2023/10/07 03:56:38;;;;;;;12.47;7.30;;;8.70;99.90;;;;;;5105523;28;20282;-56
2023/10/07 03:59:06;;;;;;;12.17;6.00;;;8.80;99.90;;;;;;5093333;28;20227;-57
2023/10/07 04:01:42;;;;;;;11.47;6.03;;;8.70;99.90;;;;;;5102025;28;20200;-56
2023/10/07 04:04:11;;;;;;;8.27;5.73;;;8.80;99.90;;;;;;5093970;28;20227;-56
2023/10/07 04:06:39;;;;;;;8.23;4.87;;;8.80;99.90;;;;;;5093531;28;20201;-56
2023/10/07 04:09:11;;;;;;;9.97;5.10;;;8.90;99.90;;;;;;5101544;28;20231;-56
2023/10/07 04:11:48;;;;;;;7.27;4.80;;;8.80;99.90;;;;;;5101796;28;20204;-55
2023/10/07 04:14:19;;;;;;;9.63;5.17;;;8.80;99.90;;;;;;5097610;28;20268;-55
2023/10/07 04:16:50;;;;;;;7.70;4.97;;;8.70;99.90;;;;;;5103919;28;20225;-55
2023/10/07 04:19:34;;;;;;;7.83;4.77;;;8.70;99.90;;;;;;5101647;28;20220;-55
2023/10/07 04:22:03;;;;;;;9.53;5.23;;;8.70;99.90;;;;;;5104656;28;20208;-55
2023/10/07 04:24:30;;;;;;;9.83;6.53;;;8.70;99.90;;;;;;5104871;28;20227;-56
2023/10/07 04:27:02;;;;;;;7.90;4.83;;;8.70;99.90;;;;;;5102152;28;20219;-56
2023/10/07 04:29:30;;;;;;;7.83;5.63;;;8.70;99.90;;;;;;5101694;28;20281;-56
2023/10/07 04:32:05;;;;;;;10.53;5.10;;;8.60;99.90;;;;;;5103936;28;20236;-57
2023/10/07 04:34:36;;;;;;;9.60;5.60;;;8.60;99.90;;;;;;5104772;28;20575;-57
2023/10/07 04:37:12;;;;;;;11.00;6.07;;;8.60;99.90;;;;;;5100996;28;20757;-56
2023/10/07 04:39:53;;;;;;;11.83;7.13;;;8.60;99.90;;;;;;5100548;28;20227;-56
2023/10/07 04:42:20;;;;;;;8.17;4.93;;;8.50;99.90;;;;;;5092772;28;20652;-56
2023/10/07 04:45:21;;;;;;;8.90;5.63;;;8.50;99.90;;;;;;5092661;28;20313;-55
2023/10/07 04:47:50;;;;;;;9.20;5.00;;;8.30;99.90;;;;;;5101753;28;20212;-56
2023/10/07 04:50:19;;;;;;;9.63;5.57;;;8.40;99.90;;;;;;5103059;28;20330;-55
2023/10/07 04:52:51;;;;;;;9.83;5.40;;;8.40;99.90;;;;;;5103943;28;20204;-56
2023/10/07 04:55:19;;;;;;;10.27;5.53;;;8.40;99.90;;;;;;5107067;28;20225;-56
2023/10/07 04:57:57;;;;;;;8.43;5.70;;;8.40;99.90;;;;;;5105644;28;20217;-56
2023/10/07 05:00:34;;;;;;;8.30;5.10;;;8.30;99.90;;;;;;5100797;28;20224;-56
2023/10/07 05:03:08;;;;;;;10.87;6.30;;;8.30;99.90;;;;;;5103347;28;20200;-54
2023/10/07 05:05:34;;;;;;;9.00;6.33;;;8.40;99.90;;;;;;5104462;28;20196;-56
2023/10/07 05:08:08;;;;;;;28.93;18.03;;;8.40;99.90;;;;;;5101330;28;20657;-55
2023/10/07 05:10:38;;;;;;;10.93;6.37;;;8.80;99.90;;;;;;5100526;28;20247;-56
2023/10/07 05:13:06;;;;;;;8.50;4.97;;;8.50;99.90;;;;;;5103560;28;20282;-56
2023/10/07 05:15:32;;;;;;;8.13;5.33;;;8.50;99.90;;;;;;5103803;28;20223;-55
2023/10/07 05:18:01;;;;;;;10.27;6.40;;;8.50;99.90;;;;;;5101562;28;20691;-55
2023/10/07 05:20:32;;;;;;;9.07;5.30;;;8.50;99.90;;;;;;5100537;28;20231;-56
2023/10/07 05:23:03;;;;;;;9.70;5.13;;;8.50;99.90;;;;;;5102606;28;20236;-55
2023/10/07 05:25:30;;;;;;;12.37;5.33;;;8.10;99.90;;;;;;5103828;28;20226;-55
2023/10/07 05:27:57;;;;;;;10.97;5.70;;;8.50;99.90;;;;;;5101790;28;20244;-56
2023/10/07 05:30:24;;;;;;;10.20;5.63;;;8.40;99.90;;;;;;5100443;28;20227;-55
2023/10/07 05:32:52;;;;;;;9.93;5.40;;;8.40;99.90;;;;;;5101416;28;20618;-55
2023/10/07 05:35:19;;;;;;;9.33;5.30;;;8.40;99.90;;;;;;5103687;28;20312;-58
2023/10/07 05:37:47;;;;;;;8.00;5.07;;;8.50;99.90;;;;;;5102854;28;20196;-55
2023/10/07 05:40:15;;;;;;;7.93;5.20;;;8.50;99.90;;;;;;5099937;28;20228;-56
2023/10/07 05:42:43;;;;;;;10.43;5.60;;;8.40;99.90;;;;;;5100165;28;20253;-55
2023/10/07 05:45:10;;;;;;;8.00;5.10;;;8.50;99.90;;;;;;5103908;28;20195;-56
2023/10/07 05:47:37;;;;;;;10.03;4.87;;;8.50;99.90;;;;;;5103394;28;20210;-55
2023/10/07 05:50:05;;;;;;;8.10;4.80;;;8.50;99.90;;;;;;5100005;28;20680;-55
2023/10/07 05:52:32;;;;;;;10.23;5.43;;;8.50;99.90;;;;;;5099784;28;20285;-55
2023/10/07 05:55:02;;;;;;;9.27;5.37;;;8.50;99.90;;;;;;5101896;28;20216;-56
2023/10/07 05:57:29;;;;;;;7.17;5.00;;;8.40;99.90;;;;;;5103621;28;20283;-55
2023/10/07 05:59:55;;;;;;;11.27;5.77;;;8.50;99.90;;;;;;5101769;28;20226;-56
2023/10/07 06:02:23;;;;;;;10.17;5.83;;;8.60;99.90;;;;;;5100232;28;20210;-55
2023/10/07 06:04:49;;;;;;;9.20;5.37;;;8.70;99.90;;;;;;5100616;28;20224;-56
2023/10/07 06:07:20;;;;;;;10.57;5.57;;;8.90;99.90;;;;;;5103822;28;20229;-57
2023/10/07 06:09:47;;;;;;;9.43;5.50;;;9.00;99.90;;;;;;5102887;28;20368;-55
2023/10/07 06:12:16;;;;;;;9.13;5.33;;;9.20;99.90;;;;;;5099839;28;20235;-56
2023/10/07 06:14:42;;;;;;;25.67;14.50;;;9.30;99.90;;;;;;5099403;28;20250;-55
2023/10/07 06:17:11;;;;;;;8.60;4.90;;;9.50;99.90;;;;;;5094665;28;20207;-57
2023/10/07 06:19:40;;;;;;;13.73;5.07;;;9.60;99.90;;;;;;5103052;28;20223;-56
2023/10/07 06:22:11;;;;;;;10.90;5.43;;;9.80;99.90;;;;;;5099814;28;20200;-57
2023/10/07 06:24:39;;;;;;;10.03;5.10;;;10.10;99.90;;;;;;5099943;28;20208;-57
2023/10/07 06:27:11;;;;;;;6.63;4.40;;;10.70;99.90;;;;;;5102316;28;20717;-56
2023/10/07 06:29:43;;;;;;;8.80;4.53;;;11.70;99.90;;;;;;5102815;28;20314;-57
2023/10/07 06:32:28;;;;;;;9.90;4.50;;;12.90;99.90;;;;;;5090727;28;20215;-56
2023/10/07 06:34:56;;;;;;;11.80;4.23;;;13.80;99.90;;;;;;5100584;28;20223;-56
2023/10/07 06:37:28;;;;;;;7.50;3.97;;;13.90;99.90;;;;;;5102877;28;20195;-56
2023/10/07 06:39:57;;;;;;;9.60;4.80;;;13.60;99.90;;;;;;5103476;28;20681;-57
2023/10/07 06:42:24;;;;;;;6.37;4.23;;;13.50;99.90;;;;;;5099750;28;20223;-57
2023/10/07 06:44:56;;;;;;;7.00;4.13;;;14.20;99.90;;;;;;5100456;28;20196;-57
2023/10/07 06:47:29;;;;;;;7.73;4.00;;;15.30;99.90;;;;;;5103691;28;20222;-57
2023/10/07 06:49:56;;;;;;;7.72;4.50;;;16.40;99.90;;;;;;5101494;28;20757;-56
2023/10/07 06:52:25;;;;;;;6.47;4.30;;;17.40;99.90;;;;;;5099605;28;20201;-57
2023/10/07 06:54:54;;;;;;;6.93;3.97;;;18.20;99.90;;;;;;5100219;28;20224;-58
2023/10/07 06:57:21;;;;;;;7.70;4.15;;;19.00;99.90;;;;;;5103087;28;20247;-59
2023/10/07 06:59:47;;;;;;;9.68;5.82;;;19.20;99.90;;;;;;5102607;28;20219;-57
2023/10/07 07:02:19;;;;;;;7.32;4.72;;;19.00;99.90;;;;;;5102166;28;20228;-59
2023/10/07 07:04:46;;;;;;;8.00;4.40;;;19.00;99.90;;;;;;5103794;28;20222;-56
2023/10/07 07:07:16;;;;;;;7.78;4.57;;;19.00;99.90;;;;;;5103308;28;20684;-57
2023/10/07 07:09:50;;;;;;;7.40;4.97;;;19.50;99.90;;;;;;5103329;28;20220;-58
2023/10/07 07:12:21;;;;;;;7.85;4.20;;;20.30;99.90;;;;;;5095331;28;20196;-61
2023/10/07 07:14:50;;;;;;;7.05;4.38;;;20.30;99.90;;;;;;5094961;28;20224;-57
2023/10/07 07:20:29;;;;;;;11.05;5.85;;;20.10;99.90;;;;;;5101085;28;20227;-57
2023/10/07 07:22:58;;;;;;;10.02;6.30;;;20.50;99.90;;;;;;5103858;28;20200;-58
2023/10/07 07:25:36;;;;;;;11.00;6.25;;;20.60;99.90;;;;;;5106401;28;20188;-56
2023/10/07 07:28:05;;;;;;;8.52;5.00;;;20.20;99.90;;;;;;5103675;28;20200;-57
2023/10/07 07:30:35;;;;;;;9.90;5.43;;;19.70;99.90;;;;;;5102346;28;20277;-56
2023/10/07 07:33:08;;;;;;;8.45;5.63;;;19.30;99.90;;;;;;5104668;28;20203;-58
2023/10/07 07:35:40;;;;;;;9.63;5.07;;;18.90;99.90;;;;;;5106163;28;20230;-58
2023/10/07 07:38:26;;;;;;;9.40;5.85;;;18.60;99.90;;;;;;5102931;28;20223;-58
2023/10/07 07:41:04;;;;;;;5.80;4.35;;;18.30;99.90;;;;;;5103363;28;20261;-57
2023/10/07 07:43:31;;;;;;;9.73;5.45;;;18.00;99.90;;;;;;5106170;28;20204;-57
2023/10/07 07:46:18;;;;;;;26.63;6.32;;;17.70;99.90;;;;;;5104419;28;20282;-57
2023/10/07 07:48:46;;;;;;;27.55;6.20;;;17.40;99.90;;;;;;5101761;28;20784;-57
2023/10/07 07:51:16;;;;;;;26.00;6.95;;;17.00;99.90;;;;;;5142557;22;20224;-61
2023/10/07 07:53:43;;;;;;;24.15;8.13;;;16.70;99.90;;;;;;5082387;28;20273;-60
2023/10/07 07:56:12;;;;;;;12.02;5.30;;;16.40;99.90;;;;;;5090569;28;20805;-61
2023/10/07 07:58:40;;;;;;;28.15;7.03;;;16.20;99.90;;;;;;5081999;28;20208;-62
2023/10/07 08:01:19;;;;;;;10.20;5.25;;;16.10;99.90;;;;;;5084761;28;20236;-62
2023/10/07 08:03:48;;;;;;;14.00;6.10;;;16.00;99.90;;;;;;5085572;28;20204;-61
2023/10/07 08:06:19;;;;;;;11.38;5.30;;;15.80;99.90;;;;;;5085406;28;20246;-62
2023/10/07 08:08:47;;;;;;;9.17;5.03;;;15.80;99.90;;;;;;5085065;28;20293;-61
2023/10/07 08:11:17;;;;;;;18.23;5.38;;;15.80;99.90;;;;;;5073481;28;20217;-61
2023/10/07 08:13:45;;;;;;;8.18;4.78;;;15.90;99.90;;;;;;5081515;28;20205;-61
2023/10/07 08:16:16;;;;;;;8.32;5.00;;;16.30;99.90;;;;;;5085111;28;20697;-61
2023/10/07 08:18:44;;;;;;;7.95;4.93;;;16.80;99.90;;;;;;5085266;28;20247;-63
2023/10/07 08:21:14;;;;;;;12.73;5.50;;;17.20;99.90;;;;;;5081811;28;20251;-62
2023/10/07 08:23:44;;;;;;;10.18;4.88;;;17.40;99.90;;;;;;5081593;28;20299;-62
2023/10/07 08:26:12;;;;;;;8.70;5.15;;;17.60;99.90;;;;;;5084321;28;20247;-61
2023/10/07 08:28:44;;;;;;;8.25;4.85;;;17.80;99.90;;;;;;5084738;28;20650;-63
2023/10/07 08:31:17;;;;;;;10.65;7.40;;;18.10;99.90;;;;;;5081510;28;20221;-63
2023/10/07 08:33:47;;;;;;;7.63;4.70;;;18.40;99.90;;;;;;5081704;28;20200;-61
2023/10/07 08:36:17;;;;;;;10.70;4.90;;;18.70;99.90;;;;;;5084991;28;20224;-60
2023/10/07 08:38:45;;;;;;;9.68;5.20;;;18.90;99.90;;;;;;5084657;28;20287;-60
2023/10/07 08:41:16;;;;;;;6.10;4.20;;;19.00;99.90;;;;;;5081310;28;20255;-61
2023/10/07 08:43:45;;;;;;;11.90;5.28;;;19.10;99.90;;;;;;5081158;28;20218;-62
2023/10/07 08:46:16;;;;;;;10.68;5.10;;;19.20;99.90;;;;;;5084045;28;20553;-60
2023/10/07 08:48:49;;;;;;;7.30;4.45;;;19.40;99.90;;;;;;5084496;28;20204;-59
2023/10/07 08:51:21;;;;;;;9.88;4.53;;;19.70;99.90;;;;;;5073008;28;20370;-61
2023/10/07 08:53:48;;;;;;;6.60;3.90;;;20.00;99.90;;;;;;5080812;28;20288;-60
2023/10/07 08:56:17;;;;;;;7.13;3.97;;;20.20;99.90;;;;;;5080921;28;20227;-62
2023/10/07 08:58:44;;;;;;;11.13;4.15;;;20.40;99.90;;;;;;5080722;28;20204;-61
2023/10/07 09:01:17;;;;;;;11.85;4.18;;;20.70;99.90;;;;;;5083763;28;20248;-61
2023/10/07 09:03:47;;;;;;;6.45;4.10;;;20.80;99.90;;;;;;5084490;28;20459;-60
2023/10/07 09:06:15;;;;;;;6.93;3.92;;;21.00;99.90;;;;;;5080375;28;20211;-61
2023/10/07 09:08:43;;;;;;;6.80;3.70;;;21.20;99.90;;;;;;5080214;28;20554;-60
2023/10/07 09:11:12;;;;;;;5.25;3.40;;;21.40;99.90;;;;;;5083316;28;20636;-60
2023/10/07 09:13:39;;;;;;;7.35;4.13;;;21.50;99.90;;;;;;5084162;28;20283;-60
2023/10/07 09:16:07;;;;;;;7.93;3.80;;;21.70;99.90;;;;;;5081277;28;20224;-61
2023/10/07 09:18:39;;;;;;;9.25;3.75;;;21.90;99.90;;;;;;5080204;28;20622;-61
2023/10/07 09:21:09;;;;;;;5.32;3.25;;;22.10;99.90;;;;;;5082359;28;20293;-61
2023/10/07 09:23:43;;;;;;;6.53;4.00;;;22.20;99.90;;;;;;5083638;28;20200;-61
2023/10/07 09:26:21;;;;;;;7.68;3.20;;;22.30;99.90;;;;;;5080941;28;20231;-60
2023/10/07 09:28:51;;;;;;;7.82;3.75;;;22.20;99.90;;;;;;5080155;28;20205;-61
2023/10/07 09:31:20;;;;;;;6.43;3.38;;;22.20;99.90;;;;;;5072487;28;20224;-60
2023/10/07 09:33:49;;;;;;;4.68;3.42;;;22.30;99.90;;;;;;5080365;28;20201;-61
2023/10/07 09:36:34;;;;;;;4.78;3.08;;;22.30;99.90;;;;;;5079803;28;20232;-60
2023/10/07 09:39:33;;;;;;;5.50;3.58;;;22.30;99.90;;;;;;5081181;28;20205;-61
2023/10/07 09:42:04;;;;;;;5.80;3.38;;;22.40;99.90;;;;;;5082288;28;20258;-61
2023/10/07 09:44:32;;;;;;;7.43;3.88;;;22.50;99.90;;;;;;5080486;28;20205;-61
2023/10/07 09:47:10;;;;;;;7.43;4.20;;;22.40;99.90;;;;;;5080832;28;20204;-61
2023/10/07 09:49:37;;;;;;;4.65;3.10;;;22.50;99.90;;;;;;5083165;28;20224;-61
2023/10/07 09:52:16;;;;;;;5.65;3.45;;;22.60;99.90;;;;;;5081192;28;20208;-61
2023/10/07 09:55:18;;;;;;;7.47;3.58;;;22.60;99.20;;;;;;5079558;28;20329;-61
2023/10/07 09:58:00;;;;;;;5.85;3.10;;;22.60;99.10;;;;;;5075128;28;20295;-61
2023/10/07 10:00:40;;;;;;;7.47;3.38;;;22.60;99.00;;;;;;5078120;28;20327;-64
2023/10/07 10:03:51;;;;;;;5.00;2.95;;;22.70;99.00;;;;;;5081042;28;20210;-60
2023/10/07 10:06:33;;;;;;;4.93;3.22;;;22.80;99.10;;;;;;5069093;28;20258;-60
2023/10/07 10:09:09;;;;;;;6.93;3.72;;;22.80;99.00;;;;;;5080607;28;20267;-61
2023/10/07 10:11:46;;;;;;;4.88;3.25;;;22.90;98.60;;;;;;5083268;28;20202;-60
2023/10/07 10:14:29;;;;;;;8.40;3.70;;;22.80;98.80;;;;;;5079881;28;20205;-60
2023/10/07 10:16:57;;;;;;;9.27;3.40;;;22.80;99.20;;;;;;5079337;28;20235;-59
2023/10/07 10:19:44;;;;;;;7.35;3.47;;;22.90;98.80;;;;;;5082618;28;20297;-60
2023/10/07 10:22:12;;;;;;;8.63;3.80;;;22.90;99.30;;;;;;5079969;28;20204;-60
2023/10/07 10:24:44;;;;;;;6.55;3.55;;;22.90;99.00;;;;;;5079458;28;20266;-61
2023/10/07 10:27:11;;;;;;;9.20;4.03;;;23.10;98.90;;;;;;5081648;28;20308;-60
2023/10/07 10:29:55;;;;;;;5.88;3.50;;;23.20;98.80;;;;;;5082657;28;20467;-60
2023/10/07 10:32:31;;;;;;;6.70;3.53;;;23.30;98.10;;;;;;5079171;28;20670;-59
2023/10/07 10:35:00;;;;;;;9.45;3.65;;;23.30;97.80;;;;;;5079805;28;20200;-61
2023/10/07 10:37:30;;;;;;;8.52;4.47;;;23.30;98.00;;;;;;5081808;28;20197;-61
2023/10/07 10:40:05;;;;;;;9.55;4.97;;;23.40;98.00;;;;;;5081537;28;20303;-61
2023/10/07 10:42:40;;;;;;;6.47;3.72;;;23.50;97.80;;;;;;5079510;28;20204;-62
2023/10/07 10:45:16;;;;;;;6.50;3.35;;;23.50;97.70;;;;;;5081023;28;20200;-59
2023/10/07 10:47:47;;;;;;;5.20;3.38;;;23.60;97.50;;;;;;5082785;28;20248;-61
2023/10/07 10:50:16;;;;;;;6.47;4.20;;;23.70;97.40;;;;;;5079247;28;20583;-61
2023/10/07 10:52:44;;;;;;;6.10;3.78;;;23.80;97.50;;;;;;5079061;28;20201;-61
2023/10/07 10:55:11;;;;;;;7.28;3.67;;;23.80;97.30;;;;;;5082054;28;20209;-60
2023/10/07 10:57:40;;;;;;;6.88;3.65;;;24.00;96.80;;;;;;5082706;28;20200;-61
2023/10/07 11:00:19;;;;;;;6.75;3.30;;;24.00;96.70;;;;;;5080876;28;20537;-61
2023/10/07 11:02:46;;;;;;;8.48;4.20;;;24.10;96.70;;;;;;5079480;28;20222;-61
2023/10/07 11:05:13;;;;;;;5.53;3.63;;;24.20;96.80;;;;;;5081992;28;20305;-61
2023/10/07 11:07:41;;;;;;;6.65;3.50;;;24.50;96.40;;;;;;5082747;28;20200;-61
2023/10/07 11:10:09;;;;;;;7.35;3.58;;;24.50;96.40;;;;;;5081309;28;20224;-61
2023/10/07 11:12:36;;;;;;;6.00;3.50;;;24.60;96.50;;;;;;5079950;28;20200;-60
2023/10/07 11:15:07;;;;;;;5.63;3.67;;;24.50;96.20;;;;;;5080761;28;20220;-61
2023/10/07 11:17:41;;;;;;;5.88;3.22;;;24.50;96.50;;;;;;5082509;28;20204;-61
2023/10/07 11:20:09;;;;;;;9.35;3.70;;;24.50;95.80;;;;;;5080399;28;20287;-61
2023/10/07 11:22:39;;;;;;;5.72;2.80;;;24.50;95.70;;;;;;5079622;28;20619;-62
2023/10/07 11:25:12;;;;;;;6.28;3.05;;;24.50;95.60;;;;;;5081154;28;20205;-60
2023/10/07 11:27:42;;;;;;;6.55;3.70;;;24.50;95.40;;;;;;5083228;28;20200;-63
2023/10/07 11:30:12;;;;;;;5.93;2.70;;;24.50;95.60;;;;;;5080433;28;20228;-62
2023/10/07 11:32:40;;;;;;;4.70;2.88;;;24.40;95.60;;;;;;5079359;28;20255;-62
2023/10/07 11:35:16;;;;;;;4.40;2.90;;;24.50;95.40;;;;;;5080811;28;20205;-60
2023/10/07 11:37:49;;;;;;;5.60;2.78;;;24.40;95.40;;;;;;5082659;28;20238;-61
2023/10/07 11:40:16;;;;;;;5.05;2.85;;;24.50;95.40;;;;;;5079280;28;20255;-61
2023/10/07 11:42:43;;;;;;;9.80;3.55;;;24.50;95.10;;;;;;5079482;28;20337;-64
2023/10/07 11:45:11;;;;;;;6.20;3.00;;;24.50;95.50;;;;;;5080998;28;20313;-62
2023/10/07 11:47:39;;;;;;;4.45;2.70;;;24.50;95.60;;;;;;5083852;28;20280;-60
2023/10/07 11:50:08;;;;;;;6.03;2.70;;;24.60;95.50;;;;;;5084362;28;20252;-61
2023/10/07 11:52:37;;;;;;;6.45;2.85;;;24.60;95.40;;;;;;5082625;28;20201;-61
2023/10/07 11:55:07;;;;;;;5.13;2.60;;;24.60;95.40;;;;;;5083692;28;20233;-62
2023/10/07 11:57:34;;;;;;;4.75;2.83;;;24.60;95.40;;;;;;5085914;28;20228;-61
2023/10/07 12:00:00;;;;;;;5.90;4.30;;;24.60;95.40;;;;;;5084943;28;20220;-62
2023/10/07 12:02:28;;;;;;;3.58;2.42;;;24.70;95.50;;;;;;5082653;28;20670;-61
2023/10/07 12:04:57;;;;;;;5.20;2.80;;;24.60;95.00;;;;;;5082686;28;20205;-60
2023/10/07 12:07:29;;;;;;;7.18;3.45;;;24.70;94.60;;;;;;5085839;28;20295;-61
2023/10/07 12:09:56;;;;;;;4.53;3.00;;;24.60;95.00;;;;;;5085790;28;20364;-62
2023/10/07 12:12:23;;;;;;;4.95;2.67;;;24.50;95.30;;;;;;5082269;28;20224;-61
2023/10/07 12:14:50;;;;;;;9.43;4.35;;;24.50;95.70;;;;;;5082501;28;20201;-62
2023/10/07 12:17:17;;;;;;;5.28;2.88;;;24.40;95.50;;;;;;5085073;28;20735;-61
2023/10/07 12:19:44;;;;;;;5.13;2.90;;;24.30;95.90;;;;;;5085819;28;20277;-60
2023/10/07 12:22:13;;;;;;;5.95;3.10;;;24.30;95.90;;;;;;5083288;28;20215;-61
2023/10/07 12:24:42;;;;;;;4.32;2.80;;;24.30;95.60;;;;;;5081959;28;20284;-60
2023/10/07 12:27:10;;;;;;;4.88;2.47;;;24.20;96.00;;;;;;5083576;28;20224;-62
2023/10/07 12:29:38;;;;;;;5.75;2.67;;;24.30;95.90;;;;;;5085455;28;20219;-60
2023/10/07 12:32:05;;;;;;;6.10;3.22;;;24.30;95.80;;;;;;5083950;28;20216;-60
2023/10/07 12:34:32;;;;;;;5.97;3.00;;;24.30;95.80;;;;;;5081501;28;20682;-61
2023/10/07 12:36:58;;;;;;;5.45;2.80;;;24.30;95.80;;;;;;5081803;28;20544;-59
2023/10/07 12:39:30;;;;;;;4.82;2.53;;;24.30;96.10;;;;;;5085114;28;20220;-59
2023/10/07 12:41:58;;;;;;;8.25;2.92;;;24.30;96.10;;;;;;5084773;28;20670;-60
2023/10/07 12:44:26;;;;;;;5.95;2.50;;;24.30;96.20;;;;;;5081627;28;20220;-60
2023/10/07 12:46:54;;;;;;;4.30;2.70;;;24.30;96.30;;;;;;5081251;28;20197;-59
2023/10/07 12:49:22;;;;;;;6.93;3.05;;;24.30;96.50;;;;;;5067759;28;20210;-60
2023/10/07 12:51:49;;;;;;;4.75;2.60;;;24.30;96.50;;;;;;5084559;28;20642;-61
2023/10/07 12:54:17;;;;;;;4.75;2.85;;;24.30;96.50;;;;;;5081799;28;20223;-60
2023/10/07 12:56:45;;;;;;;13.23;10.57;;;24.30;96.50;;;;;;5080723;28;20217;-60
2023/10/07 12:59:21;;;;;;;6.55;2.95;;;24.20;96.30;;;;;;5082498;28;20315;-60
2023/10/07 13:01:55;;;;;;;5.13;2.83;;;24.20;96.80;;;;;;5084602;28;20255;-60
2023/10/07 13:04:25;;;;;;;7.82;3.55;;;24.10;96.90;;;;;;5072968;28;20259;-61
2023/10/07 13:07:00;;;;;;;7.55;3.03;;;24.10;97.10;;;;;;5080818;28;20208;-61
2023/10/07 13:09:30;;;;;;;6.32;2.78;;;24.00;97.10;;;;;;5073277;28;20585;-60
2023/10/07 13:11:57;;;;;;;3.78;2.40;;;24.00;97.10;;;;;;5080619;28;20201;-60